Time;durP1;ratioP1;P1;durP2;ratioP2;P2;SDS_P1;SDS_P2;PMS_P1;PMS_P2;Temp;Humidity;BMP_temperature;BMP_pressure;BME280_temperature;BME280_humidity;BME280_pressure;Samples;Min_cycle;Max_cycle;Signal;HPM_P1;HPM_P2
2022/12/17 13:06:06;;;;;;;;;;;;;;;2.09;59.29;100133.28;4372044;32;20760;-92
2022/12/17 13:08:32;;;;;;;50.15;17.95;;;;;;;2.26;59.30;100145.41;4397288;32;20019;-92
2022/12/17 13:10:57;;;;;;;61.83;21.98;;;;;;;2.09;59.29;100153.81;4384775;32;20136;-92
2022/12/17 13:13:33;;;;;;;56.25;21.23;;;;;;;2.08;59.29;100146.97;4407416;32;20106;-91
2022/12/17 13:16:02;;;;;;;43.95;16.92;;;;;;;2.30;59.30;100154.84;4397228;32;20471;-90
2022/12/17 13:18:35;;;;;;;53.33;20.23;;;;;;;2.12;59.29;100160.69;4396842;32;20527;-88
2022/12/17 13:21:13;;;;;;;46.83;19.48;;;;;;;2.29;59.30;100156.56;4390415;32;20487;-89
2022/12/17 13:23:39;;;;;;;46.60;19.42;;;;;;;2.24;59.30;100152.25;4409983;32;20105;-89
2022/12/17 13:26:38;;;;;;;55.17;20.05;;;;;;;2.19;59.30;100162.50;4401296;32;20192;-88
2022/12/17 13:29:21;;;;;;;54.00;19.90;;;;;;;2.05;59.29;100162.34;4414692;32;20151;-88
2022/12/17 13:31:49;;;;;;;60.38;21.52;;;;;;;2.12;59.29;100158.97;4399776;32;20111;-87
2022/12/17 13:34:58;;;;;;;49.92;19.90;;;;;;;2.00;59.29;100164.03;4412215;32;20117;-88
2022/12/17 13:37:49;;;;;;;54.05;20.15;;;;;;;1.87;59.28;100177.56;4368206;32;20166;-89
2022/12/17 13:40:27;;;;;;;48.90;18.08;;;;;;;1.56;59.27;100183.25;4368563;32;20079;-88
2022/12/17 13:42:52;;;;;;;58.25;21.48;;;;;;;1.55;59.27;100192.66;4403244;32;20114;-88
2022/12/17 13:45:20;;;;;;;44.65;17.60;;;;;;;1.67;59.26;100179.09;4403187;32;20109;-88
2022/12/17 13:47:52;;;;;;;51.95;20.00;;;;;;;1.64;59.27;100159.37;4400092;32;20132;-86
2022/12/17 13:50:20;;;;;;;47.97;18.83;;;;;;;1.44;59.25;100172.00;4402967;32;20054;-87
2022/12/17 13:52:46;;;;;;;53.42;20.42;;;;;;;1.53;59.26;100182.38;4415565;32;20108;-88
2022/12/17 13:55:20;;;;;;;49.67;18.17;;;;;;;1.60;59.26;100182.44;4388942;32;20133;-87
2022/12/17 13:57:45;;;;;;;56.72;19.98;;;;;;;1.63;59.27;100188.44;4398742;32;20133;-88
2022/12/17 14:00:21;;;;;;;54.35;19.83;;;;;;;1.61;59.26;100215.78;4398529;32;20112;-87
2022/12/17 14:02:47;;;;;;;60.10;23.42;;;;;;;1.49;59.26;100224.22;4388316;32;21078;-88
2022/12/17 14:05:28;;;;;;;59.80;21.98;;;;;;;1.71;59.27;100214.22;4400679;32;20154;-86
2022/12/17 14:07:57;;;;;;;60.40;23.05;;;;;;;1.88;59.27;100210.09;4410772;32;20114;-88
2022/12/17 14:10:23;;;;;;;60.43;21.97;;;;;;;2.01;59.29;100216.22;4409279;32;20169;-87
2022/12/17 14:12:49;;;;;;;52.78;18.70;;;;;;;1.71;59.27;100221.91;4408370;32;20109;-86
2022/12/17 14:15:23;;;;;;;57.97;20.20;;;;;;;1.74;59.27;100215.09;4372702;32;20161;-88
2022/12/17 14:17:49;;;;;;;53.20;18.02;;;;;;;1.52;59.25;100226.81;4407571;32;20181;-88
2022/12/17 14:20:15;;;;;;;56.97;21.30;;;;;;;1.42;59.26;100229.25;4399251;32;20100;-87
2022/12/17 14:22:42;;;;;;;53.03;20.33;;;;;;;1.59;59.26;100232.88;4413116;32;20154;-89
2022/12/17 14:25:18;;;;;;;54.90;21.30;;;;;;;1.48;59.26;100232.75;4398552;32;20430;-88
2022/12/17 14:27:59;;;;;;;69.00;24.90;;;;;;;1.49;59.26;100244.75;4398580;32;20687;-89
2022/12/17 14:30:38;;;;;;;54.92;17.87;;;;;;;1.38;59.24;100261.69;4399645;32;20132;-87
2022/12/17 14:33:04;;;;;;;58.58;20.73;;;;;;;1.16;59.24;100264.81;4391541;32;20116;-87
2022/12/17 14:35:34;;;;;;;46.85;18.55;;;;;;;1.44;59.25;100263.50;4380912;32;20078;-88
2022/12/17 14:37:59;;;;;;;;;;;;;;;1.38;59.25;100271.09;4398868;32;20114;-87
2022/12/17 14:40:25;;;;;;;47.17;16.12;;;;;;;1.24;59.24;100276.03;4413520;32;20276;-87
2022/12/17 14:42:51;;;;;;;50.10;17.45;;;;;;;1.25;59.24;100275.19;4407792;32;20117;-88
2022/12/17 14:45:22;;;;;;;47.90;16.77;;;;;;;1.25;59.25;100280.34;4412167;32;20121;-89
2022/12/17 14:47:52;;;;;;;43.35;17.20;;;;;;;1.30;59.25;100285.53;4388026;32;20153;-87
2022/12/17 14:50:17;;;;;;;46.42;18.02;;;;;;;1.26;59.25;100302.56;4397104;32;20176;-90
2022/12/17 14:52:52;;;;;;;56.30;19.95;;;;;;;1.28;59.25;100303.44;4412871;32;20140;-90
2022/12/17 14:55:37;;;;;;;56.25;20.30;;;;;;;1.55;59.27;100313.22;4412406;32;20197;-90
2022/12/17 14:58:12;;;;;;;80.03;27.60;;;;;;;1.63;59.27;100321.87;4393499;32;20144;-90
2022/12/17 15:00:38;;;;;;;55.65;20.58;;;;;;;1.74;59.27;100332.28;4412635;32;20104;-91
2022/12/17 15:03:04;;;;;;;67.90;23.73;;;;;;;1.63;59.27;100327.00;4388596;32;20074;-90
2022/12/17 15:05:32;;;;;;;63.45;24.70;;;;;;;1.53;59.26;100332.88;4400811;32;20149;-89
2022/12/17 15:07:57;;;;;;;47.10;18.85;;;;;;;1.78;59.27;100336.63;4384590;32;20121;-91
2022/12/17 15:10:23;;;;;;;42.00;15.77;;;;;;;1.79;59.27;100346.03;4412421;32;20117;-90
2022/12/17 15:12:50;;;;;;;46.55;17.10;;;;;;;1.52;59.26;100349.09;4379441;32;20144;-90
2022/12/17 15:15:15;;;;;;;50.20;18.70;;;;;;;1.33;59.24;100357.38;4387035;32;20160;-90
2022/12/17 15:17:41;;;;;;;42.55;16.10;;;;;;;1.11;59.24;100346.78;4393765;32;20158;-91
2022/12/17 15:20:11;;;;;;;46.10;16.67;;;;;;;0.91;59.22;100346.47;4400052;32;20102;-92
2022/12/17 15:22:37;;;;;;;41.37;15.73;;;;;;;0.96;59.22;100350.81;4398758;32;20101;-91
2022/12/17 15:25:02;;;;;;;34.35;13.18;;;;;;;0.77;59.21;100358.19;4398589;32;20185;-92
2022/12/17 15:27:28;;;;;;;35.58;13.23;;;;;;;0.71;59.21;100355.53;4387865;32;20102;-92
2022/12/17 15:29:53;;;;;;;39.88;15.05;;;;;;;0.86;59.22;100370.28;4386289;32;20165;-94
2022/12/17 15:32:26;;;;;;;38.53;14.57;;;;;;;1.00;59.22;100373.09;4398969;32;20125;-92
2022/12/17 15:34:53;;;;;;;37.92;14.50;;;;;;;0.82;59.22;100376.22;4392244;32;20155;-93
2022/12/17 15:37:19;;;;;;;43.45;14.45;;;;;;;0.96;59.22;100368.75;4383001;32;20097;-92
2022/12/17 15:39:47;;;;;;;36.25;14.35;;;;;;;0.87;59.21;100382.25;4393337;32;20173;-94
2022/12/17 15:44:56;;;;;;;28.85;10.48;;;;;;;0.84;59.22;100382.22;4392214;32;20121;-94
2022/12/17 15:47:23;;;;;;;28.45;9.88;;;;;;;0.79;59.21;100374.47;4382058;32;20110;-94
2022/12/17 15:49:50;;;;;;;41.20;13.27;;;;;;;0.75;59.21;100367.56;4377703;32;20087;-95
2022/12/17 15:52:18;;;;;;;36.95;12.18;;;;;;;0.74;59.21;100364.97;4405152;32;20065;-95
2022/12/17 15:54:44;;;;;;;32.65;12.20;;;;;;;0.76;59.22;100359.03;4402796;32;20151;-95
2022/12/17 15:57:12;;;;;;;32.83;11.85;;;;;;;0.81;59.21;100367.66;4400825;32;20118;-94
2022/12/17 15:59:49;;;;;;;28.65;11.65;;;;;;;0.62;59.21;100356.22;4402863;32;20090;-95
2022/12/17 16:02:22;;;;;;;28.85;10.38;;;;;;;0.80;59.21;100365.94;4387388;32;20153;-93
2022/12/17 16:04:48;;;;;;;33.13;12.07;;;;;;;0.69;59.21;100387.94;4398792;32;20106;-93
2022/12/17 16:07:14;;;;;;;26.05;10.98;;;;;;;0.67;59.21;100379.34;4384499;32;20133;-93
2022/12/17 16:09:42;;;;;;;37.88;11.98;;;;;;;0.66;59.22;100387.88;4367411;32;20120;-93
2022/12/17 16:12:08;;;;;;;31.62;11.82;;;;;;;0.62;59.21;100379.28;4393015;32;20453;-93
2022/12/17 16:14:35;;;;;;;35.50;11.32;;;;;;;0.92;59.22;100389.19;4408884;32;20177;-93
2022/12/17 16:17:01;;;;;;;33.22;11.20;;;;;;;0.87;59.21;100388.25;4410331;32;20137;-93
2022/12/17 16:19:28;;;;;;;30.00;11.82;;;;;;;0.71;59.21;100393.97;4402845;32;20402;-92
2022/12/17 16:21:53;;;;;;;34.35;12.37;;;;;;;0.89;59.23;100399.41;4401637;32;20110;-92
2022/12/17 16:24:19;;;;;;;37.83;14.10;;;;;;;0.85;59.22;100413.00;4414107;32;20149;-93
2022/12/17 16:26:45;;;;;;;37.90;11.75;;;;;;;0.60;59.20;100427.06;4413052;32;20169;-92
2022/12/17 16:29:11;;;;;;;29.75;11.80;;;;;;;0.78;59.21;100444.47;4402017;32;20081;-92
2022/12/17 16:31:36;;;;;;;36.35;13.10;;;;;;;0.62;59.21;100447.59;4400814;32;20100;-91
2022/12/17 16:34:06;;;;;;;51.17;23.02;;;;;;;0.67;59.21;100445.97;4396417;32;20105;-92
2022/12/17 16:36:31;;;;;;;38.53;14.27;;;;;;;0.84;59.22;100446.28;4410222;32;20110;-92
2022/12/17 16:38:57;;;;;;;31.33;10.45;;;;;;;0.79;59.22;100455.59;4394910;32;20097;-92
2022/12/17 16:41:23;;;;;;;41.85;14.32;;;;;;;0.55;59.20;100459.41;4399528;32;20670;-92
2022/12/17 16:43:49;;;;;;;45.05;17.12;;;;;;;0.57;59.20;100472.25;4410567;32;20118;-93
2022/12/17 16:46:34;;;;;;;35.25;13.32;;;;;;;0.70;59.21;100469.06;4384914;32;20537;-92
2022/12/17 16:49:04;;;;;;;42.47;15.55;;;;;;;0.73;59.21;100476.00;4415209;32;20081;-90
2022/12/17 16:51:30;;;;;;;54.40;20.40;;;;;;;0.75;59.22;100479.44;4387983;32;20098;-92
2022/12/17 16:53:56;;;;;;;39.15;13.40;;;;;;;0.73;59.21;100486.22;4406290;32;20209;-93
2022/12/17 16:56:23;;;;;;;46.72;17.00;;;;;;;0.64;59.21;100486.91;4399932;32;20105;-93
2022/12/17 16:58:49;;;;;;;56.63;19.45;;;;;;;0.70;59.21;100491.28;4402919;32;20098;-94
2022/12/17 17:01:21;;;;;;;47.62;16.80;;;;;;;0.91;59.23;100499.38;4410014;32;20268;-94
2022/12/17 17:03:47;;;;;;;44.85;17.37;;;;;;;0.92;59.22;100508.78;4389461;32;20136;-92
2022/12/17 17:06:15;;;;;;;41.90;15.43;;;;;;;0.97;59.23;100508.91;4398159;32;20129;-91
2022/12/17 17:08:40;;;;;;;44.97;17.40;;;;;;;0.89;59.23;100508.75;4391595;32;20090;-92
2022/12/17 17:11:14;;;;;;;50.08;16.05;;;;;;;0.78;59.22;100502.56;4411113;32;20124;-90
2022/12/17 17:13:40;;;;;;;46.75;16.60;;;;;;;0.80;59.21;100513.69;4396829;32;20667;-92
2022/12/17 17:16:08;;;;;;;43.70;16.35;;;;;;;0.81;59.21;100508.59;4397755;32;20120;-92
2022/12/17 17:18:34;;;;;;;41.90;14.63;;;;;;;0.96;59.22;100512.31;4401283;32;20106;-92
2022/12/17 17:21:13;;;;;;;42.58;16.00;;;;;;;0.77;59.22;100511.94;4421959;32;20830;-91
2022/12/17 17:23:41;;;;;;;45.70;16.62;;;;;;;0.61;59.21;100522.72;4411790;32;20093;-92
2022/12/17 17:26:08;;;;;;;42.33;16.45;;;;;;;0.58;59.20;100523.50;4387193;32;20117;-91
2022/12/17 17:28:33;;;;;;;44.42;16.17;;;;;;;0.66;59.22;100533.91;4412224;32;20090;-93
2022/12/17 17:30:59;;;;;;;43.45;16.12;;;;;;;0.71;59.21;100534.91;4399471;32;20146;-94
2022/12/17 17:33:29;;;;;;;58.53;19.67;;;;;;;0.64;59.20;100543.25;4389082;32;20113;-92
2022/12/17 17:35:54;;;;;;;47.58;16.10;;;;;;;0.60;59.21;100542.34;4396753;32;20105;-93
2022/12/17 17:38:20;;;;;;;48.63;17.15;;;;;;;0.80;59.21;100541.87;4398683;32;20169;-93
2022/12/17 17:40:45;;;;;;;46.30;16.40;;;;;;;0.92;59.22;100548.09;4397787;32;20098;-92
2022/12/17 17:43:11;;;;;;;47.15;17.67;;;;;;;1.09;59.23;100568.09;4396327;32;20569;-91
2022/12/17 17:45:39;;;;;;;57.00;16.87;;;;;;;0.85;59.22;100559.06;4403947;32;20110;-92
2022/12/17 17:48:05;;;;;;;40.08;15.05;;;;;;;0.86;59.22;100550.56;4411431;32;20118;-93
2022/12/17 17:50:30;;;;;;;40.28;14.40;;;;;;;0.86;59.22;100567.62;4399107;32;20117;-93
2022/12/17 17:52:56;;;;;;;48.92;16.50;;;;;;;0.70;59.21;100566.44;4398711;32;20223;-92
2022/12/17 17:55:24;;;;;;;42.00;15.77;;;;;;;0.51;59.20;100569.47;4413026;32;20106;-93
2022/12/17 17:57:49;;;;;;;40.50;16.02;;;;;;;0.59;59.21;100571.34;4381657;32;20093;-92
2022/12/17 18:00:15;;;;;;;46.63;17.23;;;;;;;0.60;59.21;100577.34;4405907;32;20485;-91
2022/12/17 18:02:41;;;;;;;49.78;18.80;;;;;;;0.66;59.22;100577.47;4411319;32;20194;-92
2022/12/17 18:05:07;;;;;;;52.95;23.35;;;;;;;0.44;59.19;100588.06;4403669;32;20098;-92
2022/12/17 18:07:32;;;;;;;50.83;20.35;;;;;;;0.54;59.20;100590.03;4398244;32;20115;-92
2022/12/17 18:09:58;;;;;;;49.88;15.85;;;;;;;0.75;59.21;100599.87;4410894;32;20120;-91
2022/12/17 18:15:09;;;;;;;48.78;18.95;;;;;;;0.58;59.20;100609.75;4396905;32;20120;-92
2022/12/17 18:17:38;;;;;;;33.70;13.80;;;;;;;0.78;59.22;100608.50;4405206;32;20081;-90
2022/12/17 18:20:04;;;;;;;44.28;18.15;;;;;;;0.87;59.22;100620.63;4397737;32;20160;-91
2022/12/17 18:22:29;;;;;;;48.80;18.27;;;;;;;0.71;59.21;100628.81;4395035;32;20736;-92
2022/12/17 18:24:55;;;;;;;46.70;17.67;;;;;;;0.69;59.21;100633.03;4377769;32;20133;-92
2022/12/17 18:27:20;;;;;;;45.40;16.60;;;;;;;0.74;59.22;100632.31;4403928;32;20135;-92
2022/12/17 18:29:49;;;;;;;53.70;16.48;;;;;;;0.84;59.22;100633.37;4399254;32;20086;-91
2022/12/17 18:32:17;;;;;;;45.38;16.23;;;;;;;0.86;59.22;100641.97;4397648;32;20132;-92
2022/12/17 18:34:42;;;;;;;39.97;14.35;;;;;;;0.64;59.21;100640.63;4402573;32;20117;-92
2022/12/17 18:37:10;;;;;;;38.90;16.25;;;;;;;0.58;59.20;100637.94;4413115;32;20479;-92
2022/12/17 18:39:36;;;;;;;37.60;14.05;;;;;;;0.71;59.21;100645.06;4412548;32;20141;-89
2022/12/17 18:44:45;;;;;;;39.53;14.05;;;;;;;0.85;59.22;100648.78;4399948;32;20120;-92
2022/12/17 18:47:11;;;;;;;38.42;12.68;;;;;;;0.63;59.21;100661.94;4393588;32;20109;-91
2022/12/17 18:49:38;;;;;;;49.05;15.13;;;;;;;0.61;59.21;100672.16;4397238;32;20116;-89
2022/12/17 18:52:03;;;;;;;38.38;12.52;;;;;;;0.58;59.20;100686.59;4412213;32;20137;-91
2022/12/17 18:54:29;;;;;;;46.15;15.95;;;;;;;0.76;59.22;100684.47;4406239;32;20098;-92
2022/12/17 18:56:56;;;;;;;36.75;14.00;;;;;;;0.76;59.22;100691.28;4385856;32;20163;-92
2022/12/17 18:59:25;;;;;;;36.00;12.85;;;;;;;0.72;59.21;100695.50;4400430;32;20161;-91
2022/12/17 19:01:51;;;;;;;40.73;14.97;;;;;;;0.75;59.22;100705.81;4425018;32;20144;-91
2022/12/17 19:04:18;;;;;;;36.80;14.48;;;;;;;0.76;59.22;100701.53;4397411;32;20102;-91
2022/12/17 19:06:43;;;;;;;38.45;14.18;;;;;;;0.80;59.21;100708.47;4399951;32;20102;-91
2022/12/17 19:09:27;;;;;;;39.90;13.98;;;;;;;0.79;59.21;100717.84;4413032;32;20090;-93
2022/12/17 19:11:55;;;;;;;35.63;13.13;;;;;;;0.85;59.22;100712.84;4402743;32;20070;-93
2022/12/17 19:14:23;;;;;;;34.55;14.00;;;;;;;0.83;59.22;100719.66;4400258;32;20759;-91
2022/12/17 19:16:50;;;;;;;36.65;13.05;;;;;;;0.92;59.23;100724.09;4425315;32;20081;-92
2022/12/17 19:19:18;;;;;;;40.63;13.20;;;;;;;0.81;59.21;100736.69;4412403;32;20101;-92
2022/12/17 19:21:44;;;;;;;36.90;13.30;;;;;;;0.88;59.22;100737.69;4404974;32;20132;-92
2022/12/17 19:24:12;;;;;;;38.80;15.30;;;;;;;1.04;59.24;100738.91;4389130;32;20107;-91
2022/12/17 19:26:38;;;;;;;43.55;13.38;;;;;;;0.99;59.23;100753.31;4397659;32;20094;-91
2022/12/17 19:29:04;;;;;;;32.83;11.77;;;;;;;0.93;59.22;100748.91;4397394;32;20090;-92
2022/12/17 19:31:33;;;;;;;37.10;13.93;;;;;;;0.79;59.21;100751.16;4414441;32;20062;-92
2022/12/17 19:34:02;;;;;;;39.45;13.25;;;;;;;0.95;59.22;100754.97;4381598;32;20170;-91
2022/12/17 19:36:32;;;;;;;38.55;14.18;;;;;;;0.99;59.23;100755.87;4409116;32;20906;-92
2022/12/17 19:39:06;;;;;;;33.95;13.00;;;;;;;0.91;59.23;100760.81;4385434;32;20101;-89
2022/12/17 19:41:31;;;;;;;37.28;13.57;;;;;;;0.88;59.22;100764.19;4406607;32;20236;-91
2022/12/17 19:44:02;;;;;;;37.17;13.73;;;;;;;0.90;59.22;100769.34;4405249;32;20121;-92
2022/12/17 19:46:28;;;;;;;46.95;15.05;;;;;;;0.78;59.22;100766.50;4389371;32;20147;-91
2022/12/17 19:48:55;;;;;;;44.97;14.13;;;;;;;0.74;59.21;100777.53;4395646;32;20525;-91
2022/12/17 19:51:21;;;;;;;37.47;13.38;;;;;;;0.53;59.21;100786.41;4400227;32;20118;-90
2022/12/17 19:53:48;;;;;;;36.70;12.05;;;;;;;0.46;59.20;100779.37;4411747;32;20482;-93
2022/12/17 19:56:27;;;;;;;45.33;15.02;;;;;;;0.42;59.19;100789.50;4387302;32;20077;-93
2022/12/17 19:58:54;;;;;;;38.83;15.05;;;;;;;0.43;59.19;100789.53;4390555;32;20093;-91
2022/12/17 20:01:24;;;;;;;37.38;13.20;;;;;;;0.17;59.18;100800.81;4393871;32;20079;-92
2022/12/17 20:03:50;;;;;;;38.25;13.10;;;;;;;0.32;59.19;100783.31;4403304;32;20212;-93
2022/12/17 20:06:16;;;;;;;38.05;13.90;;;;;;;0.40;59.20;100793.72;4406600;32;20098;-92
2022/12/17 20:08:41;;;;;;;44.38;15.07;;;;;;;0.41;59.20;100805.72;4409760;32;20082;-92
2022/12/17 20:13:56;;;;;;;38.70;15.00;;;;;;;0.45;59.20;100812.63;4380926;32;20084;-91
2022/12/17 20:16:22;;;;;;;43.97;16.05;;;;;;;0.55;59.20;100830.00;4368530;32;20095;-92
2022/12/17 20:18:50;;;;;;;46.47;16.08;;;;;;;0.59;59.21;100829.25;4370775;32;20094;-93
2022/12/17 20:21:23;;;;;;;43.92;14.18;;;;;;;0.58;59.20;100833.50;4397296;32;20741;-93
2022/12/17 20:23:56;;;;;;;42.10;14.77;;;;;;;0.68;59.21;100832.03;4371438;32;20136;-92
2022/12/17 20:26:24;;;;;;;43.15;14.77;;;;;;;0.69;59.21;100838.88;4378258;32;20156;-93
2022/12/17 20:28:49;;;;;;;39.45;13.93;;;;;;;0.59;59.21;100837.78;4396433;32;20748;-93
2022/12/17 20:31:15;;;;;;;42.72;15.27;;;;;;;0.60;59.21;100844.66;4372142;32;20161;-93
2022/12/17 20:33:41;;;;;;;47.20;15.57;;;;;;;0.63;59.20;100851.53;4384586;32;20102;-93
2022/12/17 20:36:16;;;;;;;66.43;21.52;;;;;;;0.62;59.20;100855.81;4379746;32;20094;-92
2022/12/17 20:38:42;;;;;;;41.30;16.33;;;;;;;0.50;59.20;100867.44;4395563;32;20121;-93
2022/12/17 20:41:19;;;;;;;42.60;15.60;;;;;;;0.39;59.20;100866.28;4390839;32;20113;-90
2022/12/17 20:43:50;;;;;;;48.13;15.60;;;;;;;0.26;59.19;100870.22;4394294;32;20110;-90
2022/12/17 20:46:19;;;;;;;51.00;16.45;;;;;;;0.25;59.19;100869.34;4372682;32;20097;-90
2022/12/17 20:48:45;;;;;;;42.67;14.65;;;;;;;0.46;59.20;100875.84;4411052;32;20079;-91
2022/12/17 20:51:23;;;;;;;42.60;15.15;;;;;;;0.55;59.20;100881.22;4387587;32;20129;-90
2022/12/17 20:53:52;;;;;;;40.00;15.00;;;;;;;0.47;59.20;100893.81;4373295;32;20118;-90
2022/12/17 20:56:29;;;;;;;39.85;14.10;;;;;;;0.54;59.20;100884.63;4389017;32;20111;-90
2022/12/17 20:59:24;;;;;;;45.03;15.25;;;;;;;0.48;59.20;100894.72;4412648;32;20108;-91
2022/12/17 21:01:53;;;;;;;45.97;15.52;;;;;;;0.44;59.20;100896.28;4396039;32;20523;-90
2022/12/17 21:04:21;;;;;;;45.65;15.10;;;;;;;0.45;59.20;100904.84;4391867;32;20127;-88
2022/12/17 21:06:48;;;;;;;44.83;15.18;;;;;;;0.24;59.19;100908.56;4382349;32;20099;-91
2022/12/17 21:09:32;;;;;;;44.42;16.05;;;;;;;0.26;59.18;100911.19;4396467;32;20097;-91
2022/12/17 21:11:58;;;;;;;41.17;15.23;;;;;;;0.25;59.19;100917.12;4397377;32;20070;-91
2022/12/17 21:14:29;;;;;;;41.75;13.80;;;;;;;0.29;59.18;100922.38;4386472;32;20102;-92
2022/12/17 21:17:03;;;;;;;47.92;15.13;;;;;;;0.32;59.19;100928.41;4416032;32;20094;-93
2022/12/17 21:19:31;;;;;;;42.40;16.02;;;;;;;0.24;59.19;100923.06;4404124;32;20086;-91
2022/12/17 21:21:57;;;;;;;37.22;13.48;;;;;;;0.30;59.19;100934.34;4405474;32;20706;-92
2022/12/17 21:24:22;;;;;;;41.63;16.08;;;;;;;0.42;59.19;100930.38;4411619;32;20121;-92
2022/12/17 21:26:48;;;;;;;38.03;13.73;;;;;;;0.35;59.19;100928.47;4406868;32;20097;-91
2022/12/17 21:29:13;;;;;;;55.88;16.85;;;;;;;0.31;59.19;100935.22;4412112;32;20102;-92
2022/12/17 21:31:41;;;;;;;44.20;15.60;;;;;;;0.08;59.17;100942.25;4405609;32;20105;-90
2022/12/17 21:34:12;;;;;;;44.70;14.40;;;;;;;0.19;59.18;100942.53;4399086;32;20105;-89
2022/12/17 21:36:40;;;;;;;50.53;17.50;;;;;;;-0.09;59.16;100941.72;4398973;32;20116;-92
2022/12/17 21:39:07;;;;;;;49.45;18.10;;;;;;;0.12;59.18;100941.50;4411956;32;20073;-90
2022/12/17 21:41:35;;;;;;;45.67;17.00;;;;;;;0.23;59.19;100944.34;4390570;32;20135;-92
2022/12/17 21:44:08;;;;;;;44.10;16.20;;;;;;;0.16;59.18;100947.56;4396068;32;20114;-92
2022/12/17 21:46:34;;;;;;;39.47;15.45;;;;;;;0.24;59.19;100946.13;4399356;32;20098;-93
2022/12/17 21:49:00;;;;;;;43.10;15.68;;;;;;;0.25;59.19;100955.53;4384944;32;20112;-92
2022/12/17 21:51:26;;;;;;;37.83;14.07;;;;;;;0.33;59.19;100959.19;4402024;32;20183;-91
2022/12/17 21:54:01;;;;;;;47.38;15.40;;;;;;;0.20;59.18;100960.50;4398447;32;20502;-92
2022/12/17 21:56:27;;;;;;;45.90;15.45;;;;;;;0.33;59.19;100971.12;4409769;32;20169;-90
2022/12/17 21:59:01;;;;;;;43.85;17.08;;;;;;;0.23;59.19;100969.97;4410998;32;20089;-93
2022/12/17 22:01:43;;;;;;;40.95;16.23;;;;;;;0.18;59.18;100977.50;4417540;32;20121;-93
2022/12/17 22:04:41;;;;;;;;;;;;;;;;;;;;;
2022/12/17 22:14:01;;;;;;;45.50;15.90;;;;;;;0.19;59.18;100997.16;4303993;32;20080;-87
2022/12/17 22:16:31;;;;;;;46.58;15.25;;;;;;;0.32;59.19;101010.34;4380122;32;20132;-89
2022/12/17 22:18:57;;;;;;;51.55;15.40;;;;;;;0.13;59.18;101022.59;4397899;32;20098;-88
2022/12/17 22:21:23;;;;;;;45.42;15.32;;;;;;;0.33;59.19;101017.22;4384067;32;20094;-89
2022/12/17 22:23:48;;;;;;;45.33;17.95;;;;;;;0.33;59.19;101017.22;4400126;32;20144;-90
2022/12/17 22:26:15;;;;;;;57.92;18.35;;;;;;;0.22;59.18;101014.31;4400243;32;20110;-89
2022/12/17 22:28:41;;;;;;;54.13;17.95;;;;;;;0.32;59.20;101016.34;4399950;32;20082;-89
2022/12/17 22:33:52;;;;;;;46.70;16.48;;;;;;;0.21;59.18;101018.56;4414984;32;20119;-89
2022/12/17 22:36:18;;;;;;;43.90;14.90;;;;;;;0.16;59.18;101030.37;4395863;32;20129;-90
2022/12/17 22:38:43;;;;;;;46.17;15.57;;;;;;;0.06;59.17;101022.38;4405510;32;20085;-86
2022/12/17 22:43:28;;;;;;;44.22;16.15;;;;;;;-0.08;59.16;101029.59;4398603;32;20462;-88
2022/12/17 22:43:54;;;;;;;43.85;16.25;;;;;;;-0.11;59.17;101032.94;4415210;32;20109;-88
2022/12/17 22:46:21;;;;;;;45.47;16.58;;;;;;;-0.18;59.16;101035.28;4411909;32;20146;-90
2022/12/17 22:48:46;;;;;;;53.05;17.52;;;;;;;-0.09;59.17;101046.66;4412452;32;20086;-89
2022/12/17 22:51:12;;;;;;;45.55;15.63;;;;;;;-0.08;59.16;101047.53;4400931;32;20133;-88
2022/12/17 22:53:38;;;;;;;46.95;17.73;;;;;;;-0.13;59.17;101047.37;4395635;32;20520;-88
2022/12/17 22:56:04;;;;;;;47.08;16.48;;;;;;;-0.16;59.16;101034.50;4386809;32;20109;-86
2022/12/17 22:58:29;;;;;;;43.72;16.48;;;;;;;-0.39;59.15;101043.13;4396908;32;20099;-89
2022/12/17 23:00:55;;;;;;;47.72;16.27;;;;;;;-0.44;59.15;101040.41;4397011;32;20167;-89
2022/12/17 23:03:20;;;;;;;46.83;17.48;;;;;;;-0.44;59.14;101047.22;4400864;32;20120;-88
2022/12/17 23:05:46;;;;;;;50.17;16.77;;;;;;;-0.25;59.16;101051.22;4400881;32;20153;-89
2022/12/17 23:08:18;;;;;;;52.03;17.80;;;;;;;-0.27;59.16;101058.84;4399366;32;20359;-89
2022/12/17 23:10:46;;;;;;;51.30;16.90;;;;;;;-0.36;59.15;101064.56;4399379;32;20089;-89
2022/12/17 23:13:32;;;;;;;51.92;16.98;;;;;;;-0.30;59.15;101069.00;4399614;32;20128;-91
2022/12/17 23:15:57;;;;;;;40.58;15.20;;;;;;;-0.22;59.15;101071.81;4396547;32;20132;-88
2022/12/17 23:18:23;;;;;;;52.50;17.27;;;;;;;-0.25;59.16;101072.56;4398998;32;20153;-88
2022/12/17 23:20:48;;;;;;;46.63;15.13;;;;;;;-0.20;59.16;101075.31;4392435;32;20135;-88
2022/12/17 23:23:13;;;;;;;47.53;16.83;;;;;;;-0.28;59.16;101076.72;4386956;32;20124;-88
2022/12/17 23:25:39;;;;;;;47.65;16.65;;;;;;;-0.32;59.16;101081.75;4397140;32;20131;-88
2022/12/17 23:28:05;;;;;;;53.38;17.67;;;;;;;-0.47;59.14;101083.81;4405186;32;20089;-88
2022/12/17 23:30:30;;;;;;;54.80;16.58;;;;;;;-0.43;59.15;101088.19;4423325;32;20596;-88
2022/12/17 23:32:56;;;;;;;46.13;16.20;;;;;;;-0.45;59.14;101096.62;4415391;32;20109;-87
2022/12/17 23:35:21;;;;;;;50.03;17.12;;;;;;;-0.43;59.15;101106.09;4406244;32;20113;-87
2022/12/17 23:37:47;;;;;;;41.45;13.95;;;;;;;-0.50;59.14;101103.25;4390238;32;20134;-87
2022/12/17 23:40:13;;;;;;;52.78;18.10;;;;;;;-0.46;59.14;101105.13;4397200;32;20124;-88
2022/12/17 23:42:38;;;;;;;47.55;15.90;;;;;;;-0.47;59.14;101113.62;4412072;32;20137;-88
2022/12/17 23:45:04;;;;;;;38.15;14.10;;;;;;;-0.50;59.14;101113.50;4386755;32;20105;-88
2022/12/17 23:47:30;;;;;;;41.88;14.07;;;;;;;-0.54;59.14;101116.78;4386189;32;20119;-87
2022/12/17 23:49:55;;;;;;;46.13;16.02;;;;;;;-0.40;59.15;101124.13;4403002;32;20116;-87
2022/12/17 23:52:21;;;;;;;45.03;15.98;;;;;;;-0.52;59.14;101139.03;4403770;32;20105;-88
2022/12/17 23:54:46;;;;;;;42.65;15.32;;;;;;;-0.32;59.15;101139.72;4384342;32;20109;-89
2022/12/17 23:57:12;;;;;;;43.47;14.32;;;;;;;-0.25;59.16;101139.09;4410152;32;20135;-88
2022/12/17 23:59:37;;;;;;;41.47;13.88;;;;;;;-0.38;59.15;101134.41;4412175;32;20089;-87
